地図

経路データ

SID SEASON NUMBER BASIN SUBBASIN NAME ISO_TIME NATURE LAT LON WMO_WIND WMO_PRES WMO_AGENCY TRACK_TYPE DIST2LAND LANDFALL IFLAG USA_AGENCY USA_ATCF_ID USA_LAT USA_LON USA_RECORD USA_STATUS USA_WIND USA_PRES USA_SSHS USA_R34_NE USA_R34_SE USA_R34_SW USA_R34_NW USA_R50_NE USA_R50_SE USA_R50_SW USA_R50_NW USA_R64_NE USA_R64_SE USA_R64_SW USA_R64_NW USA_POCI USA_ROCI USA_RMW USA_EYE TOKYO_LAT TOKYO_LON TOKYO_GRADE TOKYO_WIND TOKYO_PRES TOKYO_R50_DIR TOKYO_R50_LONG TOKYO_R50_SHORT TOKYO_R30_DIR TOKYO_R30_LONG TOKYO_R30_SHORT TOKYO_LAND CMA_LAT CMA_LON CMA_CAT CMA_WIND CMA_PRES HKO_LAT HKO_LON HKO_CAT HKO_WIND HKO_PRES NEWDELHI_LAT NEWDELHI_LON NEWDELHI_GRADE NEWDELHI_WIND NEWDELHI_PRES NEWDELHI_CI NEWDELHI_DP NEWDELHI_POCI REUNION_LAT REUNION_LON REUNION_TYPE REUNION_WIND REUNION_PRES REUNION_TNUM REUNION_CI REUNION_RMW REUNION_R34_NE REUNION_R34_SE REUNION_R34_SW REUNION_R34_NW REUNION_R50_NE REUNION_R50_SE REUNION_R50_SW REUNION_R50_NW REUNION_R64_NE REUNION_R64_SE REUNION_R64_SW REUNION_R64_NW BOM_LAT BOM_LON BOM_TYPE BOM_WIND BOM_PRES BOM_TNUM BOM_CI BOM_RMW BOM_R34_NE BOM_R34_SE BOM_R34_SW BOM_R34_NW BOM_R50_NE BOM_R50_SE BOM_R50_SW BOM_R50_NW BOM_R64_NE BOM_R64_SE BOM_R64_SW BOM_R64_NW BOM_ROCI BOM_POCI BOM_EYE BOM_POS_METHOD BOM_PRES_METHOD NADI_LAT NADI_LON NADI_CAT NADI_WIND NADI_PRES WELLINGTON_LAT WELLINGTON_LON WELLINGTON_WIND WELLINGTON_PRES DS824_LAT DS824_LON DS824_STAGE DS824_WIND DS824_PRES TD9636_LAT TD9636_LON TD9636_STAGE TD9636_WIND TD9636_PRES TD9635_LAT TD9635_LON TD9635_WIND TD9635_PRES TD9635_ROCI NEUMANN_LAT NEUMANN_LON NEUMANN_CLASS NEUMANN_WIND NEUMANN_PRES MLC_LAT MLC_LON MLC_CLASS MLC_WIND MLC_PRES USA_GUST BOM_GUST BOM_GUST_PER REUNION_GUST REUNION_GUST_PER USA_SEAHGT USA_SEARAD_NE USA_SEARAD_SE USA_SEARAD_SW USA_SEARAD_NW STORM_SPEED STORM_DIR
1915038S17148 1915 3 SP EA NOT_NAMED 1915-02-06 23:00:00 NR -16.9000 148.300 main 240 240 __________O___ -1 -16.9000 148.300 7 2 0
1915038S17148 1915 3 SP EA NOT_NAMED 1915-02-07 00:00:00 NR -16.9256 148.273 main 240 227 __________P___ -1 -16.9256 148.273 7 2 224
1915038S17148 1915 3 SP EA NOT_NAMED 1915-02-07 03:00:00 NR -17.0057 148.194 main 227 215 __________P___ -1 -17.0057 148.194 7 2 221
1915038S17148 1915 3 SP EA NOT_NAMED 1915-02-07 06:00:00 NR -17.0974 148.117 main 215 202 __________P___ -1 -17.0974 148.117 7 3 215
1915038S17148 1915 3 SP EA NOT_NAMED 1915-02-07 09:00:00 NR -17.2096 148.045 main 202 202 __________P___ -1 -17.2096 148.045 7 3 209
1915038S17148 1915 3 SP EA NOT_NAMED 1915-02-07 11:00:00 NR -17.3000 148.000 main 202 202 __________O___ -1 -17.3000 148.000 7 3 207
1915038S17148 1915 3 SP EA NOT_NAMED 1915-02-07 12:00:00 NR -17.3507 147.979 main 201 190 __________P___ -1 -17.3507 147.979 7 4 200
1915038S17148 1915 3 SP EA NOT_NAMED 1915-02-07 15:00:00 NR -17.5205 147.920 main 190 190 __________P___ -1 -17.5205 147.920 7 4 197
1915038S17148 1915 3 SP EA NOT_NAMED 1915-02-07 18:00:00 NR -17.7044 147.869 main 190 173 __________P___ -1 -17.7044 147.869 7 4 194
1915038S17148 1915 3 SP EA NOT_NAMED 1915-02-07 21:00:00 NR -17.8869 147.825 main 173 162 __________P___ -1 -17.8869 147.825 7 4 193
1915038S17148 1915 3 SP EA NOT_NAMED 1915-02-07 23:00:00 NR -18.0000 147.800 main 162 162 __________O___ -1 -18.0000 147.800 7 3 196
1915038S17148 1915 3 SP EA NOT_NAMED 1915-02-08 00:00:00 NR -18.0484 147.783 main 162 137 __________P___ -1 -18.0484 147.783 7 3 196
1915038S17148 1915 3 SP EA NOT_NAMED 1915-02-08 03:00:00 NR -18.1825 147.737 main 137 127 __________P___ -1 -18.1825 147.737 7 3 197
1915038S17148 1915 3 SP EA NOT_NAMED 1915-02-08 06:00:00 NR -18.3049 147.703 main 127 116 __________P___ -1 -18.3049 147.703 7 2 191
1915038S17148 1915 3 SP EA NOT_NAMED 1915-02-08 09:00:00 NR -18.4219 147.691 main 116 105 __________P___ -1 -18.4219 147.691 7 2 0
1915038S17148 1915 3 SP EA NOT_NAMED 1915-02-08 11:00:00 NR -18.5000 147.700 main 105 105 __________O___ -1 -18.5000 147.700 7 2 173
1915038S17148 1915 3 SP EA NOT_NAMED 1915-02-08 12:00:00 NR -18.5330 147.702 main 105 94 __________P___ -1 -18.5330 147.702 7 2 168
1915038S17148 1915 3 SP EA NOT_NAMED 1915-02-08 15:00:00 NR -18.6285 147.725 main 94 84 __________P___ -1 -18.6285 147.725 7 2 159
1915038S17148 1915 3 SP EA NOT_NAMED 1915-02-08 18:00:00 NR -18.7356 147.785 main 88 76 __________P___ -1 -18.7356 147.785 7 3 148
1915038S17148 1915 3 SP EA NOT_NAMED 1915-02-08 21:00:00 NR -18.8765 147.894 main 76 76 __________P___ -1 -18.8765 147.894 7 4 142
1915038S17148 1915 3 SP EA NOT_NAMED 1915-02-08 23:00:00 NR -19.0000 148.000 main 76 68 __________O___ -1 -19.0000 148.000 7 5 142
1915038S17148 1915 3 SP EA NOT_NAMED 1915-02-09 00:00:00 NR -19.0778 148.063 main 77 69 __________P___ -1 -19.0778 148.063 7 7 141
1915038S17148 1915 3 SP EA NOT_NAMED 1915-02-09 03:00:00 NR -19.3503 148.298 main 67 49 __________P___ -1 -19.3503 148.298 7 8 140
1915038S17148 1915 3 SP EA NOT_NAMED 1915-02-09 06:00:00 NR -19.6618 148.580 main 45 35 __________P___ -1 -19.6618 148.580 7 9 139
1915038S17148 1915 3 SP EA NOT_NAMED 1915-02-09 09:00:00 NR -19.9874 148.890 main 35 30 __________P___ -1 -19.9874 148.890 7 9 138
1915038S17148 1915 3 SP EA NOT_NAMED 1915-02-09 11:00:00 NR -20.2000 149.100 main 33 33 __________O___ -1 -20.2000 149.100 7 8 138
1915038S17148 1915 3 SP EA NOT_NAMED 1915-02-09 12:00:00 NR -20.2924 149.187 main 38 33 __________P___ -1 -20.2924 149.187 7 7 138
1915038S17148 1915 3 SP EA NOT_NAMED 1915-02-09 15:00:00 NR -20.5630 149.450 main 53 53 __________P___ -1 -20.5630 149.450 7 7 137
1915038S17148 1915 3 SP EA NOT_NAMED 1915-02-09 18:00:00 NR -20.8314 149.731 main 61 61 __________P___ -1 -20.8314 149.731 7 8 134
1915038S17148 1915 3 SP EA NOT_NAMED 1915-02-09 21:00:00 NR -21.1073 150.053 main 89 85 __________P___ -1 -21.1073 150.053 7 9 131
1915038S17148 1915 3 SP EA NOT_NAMED 1915-02-09 23:00:00 NR -21.3000 150.300 main 98 98 __________O___ -1 -21.3000 150.300 7 10 129
1915038S17148 1915 3 SP EA NOT_NAMED 1915-02-10 00:00:00 NR -21.4080 150.446 main 98 78 __________P___ -1 -21.4080 150.446 7 11 127
1915038S17148 1915 3 SP EA NOT_NAMED 1915-02-10 03:00:00 NR -21.7455 150.929 main 80 68 __________P___ -1 -21.7455 150.929 7 12 126
1915038S17148 1915 3 SP EA NOT_NAMED 1915-02-10 06:00:00 NR -22.0859 151.452 main 84 84 __________P___ -1 -22.0859 151.452 7 12 124
1915038S17148 1915 3 SP EA NOT_NAMED 1915-02-10 09:00:00 NR -22.4071 151.974 main 123 123 __________P___ -1 -22.4071 151.974 7 11 123
1915038S17148 1915 3 SP EA NOT_NAMED 1915-02-10 11:00:00 NR -22.6000 152.300 main 153 153 __________O___ -1 -22.6000 152.300 7 10 121
1915038S17148 1915 3 SP EA NOT_NAMED 1915-02-10 12:00:00 NR -22.6721 152.445 main 164 164 __________P___ -1 -22.6721 152.445 7 9 117
1915038S17148 1915 3 SP EA NOT_NAMED 1915-02-10 15:00:00 NR -22.8566 152.852 main 174 174 __________P___ -1 -22.8566 152.852 7 8 116
1915038S17148 1915 3 SP EA NOT_NAMED 1915-02-10 18:00:00 NR -23.0274 153.226 main 188 179 __________P___ -1 -23.0274 153.226 7 8 119
1915038S17148 1915 3 SP EA NOT_NAMED 1915-02-10 21:00:00 NR -23.2281 153.576 main 181 161 __________P___ -1 -23.2281 153.576 7 8 125
1915038S17148 1915 3 SP EA NOT_NAMED 1915-02-10 23:00:00 NR -23.4000 153.800 main 164 157 __________O___ -1 -23.4000 153.800 7 9 131
1915038S17148 1915 3 SP EA NOT_NAMED 1915-02-11 00:00:00 NR -23.5090 153.927 main 157 142 __________P___ -1 -23.5090 153.927 7 10 136
1915038S17148 1915 3 SP EA NOT_NAMED 1915-02-11 03:00:00 NR -23.8849 154.302 main 142 138 __________P___ -1 -23.8849 154.302 7 10 141
1915038S17148 1915 3 SP EA NOT_NAMED 1915-02-11 06:00:00 NR -24.3165 154.650 main 142 142 __________P___ -1 -24.3165 154.650 7 11 147
1915038S17148 1915 3 SP EA NOT_NAMED 1915-02-11 09:00:00 NR -24.7818 154.945 main 152 152 __________P___ -1 -24.7818 154.945 7 11 152
1915038S17148 1915 3 SP EA NOT_NAMED 1915-02-11 11:00:00 NR -25.1000 155.100 main 171 171 __________O___ -1 -25.1000 155.100 7 10 158
1915038S17148 1915 3 SP EA NOT_NAMED 1915-02-11 12:00:00 NR -25.2428 155.151 main 182 182 __________P___ -1 -25.2428 155.151 7 9 167
1915038S17148 1915 3 SP EA NOT_NAMED 1915-02-11 15:00:00 NR -25.6788 155.244 main 196 196 __________P___ -1 -25.6788 155.244 7 9 172
1915038S17148 1915 3 SP EA NOT_NAMED 1915-02-11 18:00:00 NR -26.1387 155.289 main 219 215 __________P___ -1 -26.1387 155.289 7 10 175
1915038S17148 1915 3 SP EA NOT_NAMED 1915-02-11 21:00:00 NR -26.6378 155.338 main 215 212 __________P___ -1 -26.6378 155.338 7 10 174
1915038S17148 1915 3 SP EA NOT_NAMED 1915-02-11 23:00:00 NR -27.0000 155.400 main 214 209 __________O___ -1 -27.0000 155.400 7 12 171
1915038S17148 1915 3 SP EA NOT_NAMED 1915-02-12 00:00:00 NR -27.2102 155.443 main 209 194 __________P___ -1 -27.2102 155.443 7 14 168
1915038S17148 1915 3 SP EA NOT_NAMED 1915-02-12 03:00:00 NR -27.8863 155.602 main 198 197 __________P___ -1 -27.8863 155.602 7 14 166
1915038S17148 1915 3 SP EA NOT_NAMED 1915-02-12 06:00:00 NR -28.5803 155.826 main 214 214 __________P___ -1 -28.5803 155.826 7 14 161
1915038S17148 1915 3 SP EA NOT_NAMED 1915-02-12 09:00:00 NR -29.2272 156.135 main 245 245 __________P___ -1 -29.2272 156.135 7 14 154
1915038S17148 1915 3 SP EA NOT_NAMED 1915-02-12 11:00:00 NR -29.6000 156.400 main 282 282 __________O___ -1 -29.6000 156.400 7 13 146
1915038S17148 1915 3 SP EA NOT_NAMED 1915-02-12 12:00:00 NR -29.7622 156.552 main 307 307 __________P___ -1 -29.7622 156.552 7 12 134
1915038S17148 1915 3 SP EA NOT_NAMED 1915-02-12 15:00:00 NR -30.1584 157.078 main 366 366 __________P___ -1 -30.1584 157.078 7 12 125
1915038S17148 1915 3 SP EA NOT_NAMED 1915-02-12 18:00:00 NR -30.4486 157.686 main 426 426 __________P___ -1 -30.4486 157.686 7 12 115
1915038S17148 1915 3 SP EA NOT_NAMED 1915-02-12 21:00:00 NR -30.6707 158.346 main 487 487 __________P___ -1 -30.6707 158.346 7 12 110
1915038S17148 1915 3 SP EA NOT_NAMED 1915-02-12 23:00:00 NR -30.8000 158.800 main 536 __________O___ -1 -30.8000 158.800 7 12 108

デジタル台風データ・検索

IBTrACS Databaseについて

本データベースは、米国NOAAが公開する1842年以降の世界の熱帯低気圧のベストトラックデータアーカイブInternational Best Track Archive for Climate Stewardship (IBTrACS)を、ウェブで閲覧しやすい形式に変換したものです。

最終更新日:2021-12-01